createdAt,value
2023-03-06T00:30:11.588Z,24.71
2023-03-06T00:33:11.637Z,24.72
2023-03-06T00:34:11.743Z,24.72
2023-03-06T00:35:11.786Z,24.72
2023-03-06T00:36:11.734Z,24.73
2023-03-06T00:43:01.382Z,24.75
2023-03-06T00:44:01.085Z,24.76
2023-03-06T00:45:01.197Z,24.78
2023-03-06T00:46:01.237Z,24.75
2023-03-06T00:47:01.169Z,24.78
2023-03-06T00:48:01.270Z,24.76
2023-03-06T00:49:01.271Z,24.76
2023-03-06T00:50:01.328Z,24.75
2023-03-06T00:51:01.399Z,24.75
2023-03-06T00:52:01.350Z,24.76
2023-03-06T00:53:01.388Z,24.78
2023-03-06T00:54:01.482Z,24.76
2023-03-06T00:55:01.404Z,24.76
2023-03-06T00:56:01.435Z,24.76
2023-03-06T00:57:01.478Z,24.78
2023-03-06T00:58:01.485Z,24.79
2023-03-06T00:59:01.463Z,24.82
2023-03-06T01:09:29.998Z,24.76
2023-03-06T01:11:29.668Z,24.76
2023-03-06T01:15:29.827Z,24.73
2023-03-06T01:30:30.066Z,24.82
2023-03-06T01:31:29.946Z,24.81
2023-03-06T01:32:29.991Z,24.79
2023-03-06T01:33:29.943Z,24.78
2023-03-06T01:34:29.971Z,24.79
2023-03-06T01:36:29.911Z,24.78
2023-03-06T01:37:29.876Z,24.78
2023-03-06T01:38:29.924Z,24.78
2023-03-06T01:39:29.981Z,24.79
2023-03-06T01:40:30.036Z,24.79
2023-03-06T01:41:29.916Z,24.79
2023-03-06T01:43:29.964Z,24.83
2023-03-06T01:44:29.994Z,24.81
2023-03-06T01:45:30.016Z,24.76
2023-03-06T01:46:29.918Z,24.81
2023-03-06T01:47:30.079Z,24.79
2023-03-06T01:48:29.919Z,24.81
2023-03-06T01:50:29.886Z,24.79
2023-03-06T01:52:29.894Z,24.79
2023-03-06T01:53:29.949Z,24.81
2023-03-06T01:55:30.029Z,24.82
2023-03-06T01:56:29.901Z,24.82
2023-03-06T01:57:29.992Z,24.82
2023-03-06T01:58:29.803Z,24.81
2023-03-06T01:59:29.852Z,24.82
2023-03-06T02:00:29.873Z,24.82
2023-03-06T02:01:29.917Z,24.85
2023-03-06T02:02:30.033Z,24.85
2023-03-06T02:03:29.887Z,24.85
2023-03-06T02:04:30.910Z,24.83
2023-03-06T02:05:29.909Z,24.85
2023-03-06T02:06:29.899Z,24.81
2023-03-06T02:07:29.849Z,24.83
2023-03-06T02:08:29.890Z,24.83
2023-03-06T02:09:29.937Z,24.82
2023-03-06T02:10:29.971Z,24.83
2023-03-06T02:11:29.983Z,24.81
2023-03-06T02:12:29.795Z,24.83
2023-03-06T02:13:29.946Z,24.85
2023-03-06T02:14:29.933Z,24.82
2023-03-06T02:15:29.820Z,24.85
2023-03-06T02:16:29.861Z,24.86
2023-03-06T02:17:29.893Z,24.85
2023-03-06T02:18:29.801Z,24.85
2023-03-06T02:19:29.893Z,24.86
2023-03-06T02:20:29.890Z,24.86
2023-03-06T02:21:29.867Z,24.86
2023-03-06T02:22:29.796Z,24.90
2023-03-06T02:23:29.828Z,24.90
2023-03-06T02:24:29.872Z,24.92
2023-03-06T02:25:29.966Z,24.92
2023-03-06T02:27:48.802Z,24.92
2023-03-06T02:28:49.010Z,24.93
2023-03-06T02:32:38.416Z,24.96
2023-03-06T02:33:38.050Z,24.96
2023-03-06T02:34:38.158Z,24.96
2023-03-06T02:35:38.110Z,24.99
2023-03-06T02:36:38.132Z,24.99
2023-03-06T02:37:38.150Z,25.00
2023-03-06T02:38:38.168Z,25.02
2023-03-06T02:39:38.164Z,25.02
2023-03-06T02:40:38.280Z,25.05
2023-03-06T02:41:38.211Z,25.07
2023-03-06T02:42:38.184Z,25.05
2023-03-06T02:43:38.212Z,25.07
2023-03-06T02:44:38.186Z,25.06
2023-03-06T02:45:38.201Z,25.07
2023-03-06T02:46:38.182Z,25.09
2023-03-06T02:47:38.207Z,25.09
2023-03-06T02:48:38.184Z,25.10
2023-03-06T02:49:38.235Z,25.10
2023-03-06T02:50:38.237Z,25.13
2023-03-06T02:51:38.333Z,25.13
2023-03-06T02:52:38.309Z,25.11
2023-03-06T02:53:38.323Z,25.14
2023-03-06T02:54:38.380Z,25.14
2023-03-06T04:55:18.071Z,25.30
2023-03-06T04:56:18.141Z,25.29
2023-03-06T04:57:18.229Z,25.26
2023-03-06T04:58:17.931Z,25.27
2023-03-06T04:59:18.002Z,25.26
2023-03-06T05:00:18.052Z,25.27
2023-03-06T05:01:18.101Z,25.24
2023-03-06T05:02:18.028Z,25.26
2023-03-06T05:37:02.476Z,25.17
2023-03-06T05:38:02.566Z,25.19
2023-03-06T05:39:02.502Z,25.23
2023-03-06T05:40:02.652Z,25.17
2023-03-06T05:41:02.445Z,25.19
2023-03-06T05:42:02.399Z,25.20
2023-03-06T05:43:02.374Z,25.19
2023-03-06T05:44:02.365Z,25.19
2023-03-06T05:45:02.422Z,25.20
2023-03-06T05:46:02.447Z,25.20
2023-03-06T05:47:02.427Z,25.21
2023-03-06T05:48:02.368Z,25.23
2023-03-06T05:49:02.366Z,25.20
2023-03-06T07:35:13.745Z,23.36
2023-03-06T07:36:02.204Z,23.39
2023-03-06T07:44:01.572Z,23.44
2023-03-06T07:47:01.548Z,23.57
2023-03-06T08:05:53.891Z,24.41
2023-03-06T08:06:53.540Z,24.39
2023-03-06T08:14:28.634Z,24.56
2023-03-06T08:15:22.765Z,24.58
2023-03-06T08:16:21.329Z,24.61
2023-03-06T08:27:25.894Z,24.75
2023-03-06T08:32:03.449Z,24.71
2023-03-06T08:48:58.066Z,24.20
2023-03-06T08:54:24.136Z,24.28
2023-03-06T08:55:24.784Z,24.30
2023-03-06T08:56:23.734Z,24.36
2023-03-06T08:57:25.097Z,24.35
2023-03-06T08:58:23.832Z,24.38
2023-03-06T08:59:23.772Z,24.42
2023-03-06T09:00:23.864Z,24.45
2023-03-06T09:01:23.359Z,24.45
2023-03-06T09:02:23.952Z,24.47
2023-03-06T09:15:01.462Z,24.63
2023-03-06T09:16:00.876Z,24.65
2023-03-06T09:17:01.759Z,24.65
2023-03-06T09:18:01.659Z,24.68
2023-03-06T09:29:23.492Z,24.81
2023-03-06T09:30:23.222Z,24.83
2023-03-06T09:31:22.772Z,24.82
2023-03-06T09:32:22.743Z,24.75
2023-03-06T09:33:22.766Z,24.63
2023-03-06T09:34:22.951Z,24.65
2023-03-06T09:36:59.138Z,24.54
2023-03-06T10:52:10.078Z,24.25
2023-03-06T11:05:29.318Z,24.59
2023-03-06T12:23:44.956Z,25.07
2023-03-06T12:33:22.980Z,24.34
2023-03-06T12:35:41.790Z,23.99
2023-03-06T13:51:32.103Z,21.72
2023-03-06T13:52:32.693Z,21.66
2023-03-06T14:24:07.144Z,24.35
2023-03-06T14:25:06.921Z,24.41
2023-03-06T14:26:07.143Z,24.44
2023-03-06T14:37:44.617Z,24.62
2023-03-06T14:38:44.873Z,24.63
2023-03-06T14:39:45.150Z,24.68
2023-03-06T14:42:04.152Z,24.68
2023-03-06T14:48:00.699Z,24.69
2023-03-06T14:53:39.713Z,24.69
2023-03-06T14:55:58.136Z,24.69
2023-03-06T14:56:58.135Z,24.73
2023-03-06T14:57:57.907Z,24.73
2023-03-06T14:58:58.153Z,24.73
2023-03-06T14:59:58.022Z,24.75
2023-03-06T15:00:58.355Z,24.78
2023-03-06T15:01:58.020Z,24.79
2023-03-06T15:09:59.486Z,24.75
2023-03-06T15:12:42.572Z,24.75
2023-03-06T15:16:59.701Z,24.59
2023-03-06T15:17:57.200Z,24.58
2023-03-06T15:18:56.450Z,24.55
2023-03-06T15:19:56.593Z,24.56
2023-03-06T15:39:20.814Z,24.86
2023-03-06T15:40:20.899Z,24.87
2023-03-06T15:41:20.937Z,24.86
2023-03-06T15:42:20.934Z,24.89
2023-03-06T15:43:21.056Z,24.90
2023-03-06T15:45:21.005Z,24.93
2023-03-06T15:46:21.040Z,24.93
2023-03-06T18:06:30.374Z,24.73
2023-03-06T18:12:49.753Z,24.71
2023-03-06T18:18:55.770Z,24.71
2023-03-06T18:47:53.527Z,24.75
2023-03-06T18:54:53.320Z,24.76
2023-03-06T18:57:12.347Z,24.75
2023-03-06T18:58:12.205Z,24.76
2023-03-06T19:00:32.061Z,24.75
2023-03-06T19:02:49.577Z,24.75
2023-03-06T19:37:37.681Z,24.82
